Time;durP1;ratioP1;P1;durP2;ratioP2;P2;SDS_P1;SDS_P2;PMS_P1;PMS_P2;Temp;Humidity;BMP_temperature;BMP_pressure;BME280_temperature;BME280_humidity;BME280_pressure;Samples;Min_cycle;Max_cycle;Signal;HPM_P1;HPM_P2
2023/06/02 00:01:32;;;;;;;23.48;3.58;;;;;;;;;;5014026;28;20121;-41
2023/06/02 00:04:01;;;;;;;35.55;4.72;;;;;;;;;;4996352;28;20038;-41
2023/06/02 00:06:30;;;;;;;30.23;4.88;;;;;;;;;;5013200;28;20037;-41
2023/06/02 00:08:58;;;;;;;39.17;6.72;;;;;;;;;;5012830;28;20052;-40
2023/06/02 00:11:25;;;;;;;35.25;5.55;;;;;;;;;;5013344;28;20115;-43
2023/06/02 00:13:52;;;;;;;36.05;6.47;;;;;;;;;;5014107;28;20022;-41
2023/06/02 00:16:19;;;;;;;44.30;7.53;;;;;;;;;;5013801;28;20057;-41
2023/06/02 00:18:47;;;;;;;43.65;9.00;;;;;;;;;;5013718;28;20034;-41
2023/06/02 00:21:15;;;;;;;42.25;8.32;;;;;;;;;;4994508;28;20036;-41
2023/06/02 00:23:42;;;;;;;48.78;9.95;;;;;;;;;;5013224;28;20077;-41
2023/06/02 00:26:09;;;;;;;43.35;11.30;;;;;;;;;;4988977;28;20034;-41
2023/06/02 00:28:36;;;;;;;53.25;10.85;;;;;;;;;;5013500;28;20030;-40
2023/06/02 00:31:03;;;;;;;53.42;12.68;;;;;;;;;;5014089;28;20034;-41
2023/06/02 00:33:30;;;;;;;59.38;12.27;;;;;;;;;;5013848;28;20760;-39
2023/06/02 00:35:57;;;;;;;50.75;13.50;;;;;;;;;;5014026;28;20543;-41
2023/06/02 00:38:24;;;;;;;41.58;13.40;;;;;;;;;;5013394;28;20033;-41
2023/06/02 00:40:51;;;;;;;54.53;14.73;;;;;;;;;;5013120;28;20380;-41
2023/06/02 00:43:18;;;;;;;57.17;17.85;;;;;;;;;;5013534;28;20073;-41
2023/06/02 00:45:45;;;;;;;82.45;22.55;;;;;;;;;;5013360;28;20021;-41
2023/06/02 00:48:12;;;;;;;101.43;29.48;;;;;;;;;;5013594;28;20377;-41
2023/06/02 00:50:39;;;;;;;120.75;33.88;;;;;;;;;;5005785;28;20084;-41
2023/06/02 00:53:06;;;;;;;131.82;36.58;;;;;;;;;;5013654;28;20106;-41
2023/06/02 00:55:33;;;;;;;125.07;36.53;;;;;;;;;;5013055;28;20033;-40
2023/06/02 00:58:03;;;;;;;124.80;37.47;;;;;;;;;;5013174;28;20068;-41
2023/06/02 01:00:36;;;;;;;132.55;39.65;;;;;;;;;;4992004;28;20046;-41
2023/06/02 01:03:04;;;;;;;128.18;37.67;;;;;;;;;;5013102;28;20080;-41
2023/06/02 01:05:31;;;;;;;119.60;36.22;;;;;;;;;;4988248;28;20568;-40
2023/06/02 01:08:00;;;;;;;118.85;35.30;;;;;;;;;;5013029;28;20034;-41
2023/06/02 01:10:28;;;;;;;105.70;35.17;;;;;;;;;;4998561;28;20106;-40
2023/06/02 01:12:56;;;;;;;107.97;33.22;;;;;;;;;;5009353;28;20084;-41
2023/06/02 01:15:23;;;;;;;107.82;33.85;;;;;;;;;;5013112;28;20795;-40
2023/06/02 01:17:52;;;;;;;102.18;31.90;;;;;;;;;;5011796;28;20109;-40
2023/06/02 01:20:23;;;;;;;91.75;30.88;;;;;;;;;;5013067;28;20042;-41
2023/06/02 01:22:53;;;;;;;98.22;31.98;;;;;;;;;;5012433;28;20069;-40
2023/06/02 01:25:25;;;;;;;89.80;30.52;;;;;;;;;;5012291;28;20084;-40
2023/06/02 01:27:52;;;;;;;;;;;;;;;;;;5013521;28;20033;-40
2023/06/02 01:30:19;;;;;;;87.38;29.13;;;;;;;;;;5012668;28;19909;-41
2023/06/02 01:32:58;;;;;;;84.07;28.27;;;;;;;;;;5012667;28;20038;-40
2023/06/02 01:35:28;;;;;;;85.90;27.75;;;;;;;;;;5011359;28;20033;-40
2023/06/02 01:37:57;;;;;;;80.68;26.00;;;;;;;;;;5003457;28;20034;-41
2023/06/02 01:40:25;;;;;;;79.18;25.98;;;;;;;;;;5009187;28;20052;-41
2023/06/02 01:42:53;;;;;;;70.32;24.95;;;;;;;;;;5011493;28;20044;-41
2023/06/02 01:45:20;;;;;;;75.78;25.05;;;;;;;;;;5011897;28;20415;-41
2023/06/02 01:47:48;;;;;;;62.45;23.20;;;;;;;;;;5012821;28;20041;-40
2023/06/02 01:50:15;;;;;;;64.88;24.35;;;;;;;;;;5012400;28;20105;-40
2023/06/02 01:52:42;;;;;;;72.05;23.55;;;;;;;;;;5012804;28;20042;-41
2023/06/02 01:55:09;;;;;;;75.05;24.85;;;;;;;;;;4990624;28;20026;-41
2023/06/02 01:57:36;;;;;;;73.90;24.73;;;;;;;;;;5003769;28;20033;-41
2023/06/02 02:00:05;;;;;;;82.80;23.83;;;;;;;;;;5010360;28;20041;-41
2023/06/02 02:02:32;;;;;;;65.05;23.65;;;;;;;;;;5010927;28;20034;-41
2023/06/02 02:04:59;;;;;;;69.78;22.98;;;;;;;;;;5009332;28;20124;-41
2023/06/02 02:07:28;;;;;;;67.72;22.00;;;;;;;;;;5012148;28;20086;-41
2023/06/02 02:09:56;;;;;;;66.13;22.95;;;;;;;;;;5011664;28;20398;-41
2023/06/02 02:12:24;;;;;;;60.90;20.83;;;;;;;;;;5011454;28;20040;-42
2023/06/02 02:14:53;;;;;;;65.90;22.38;;;;;;;;;;5009702;28;20811;-41
2023/06/02 02:17:24;;;;;;;60.03;20.77;;;;;;;;;;5011598;28;20046;-42
2023/06/02 02:19:51;;;;;;;57.60;21.90;;;;;;;;;;4998484;28;20037;-41
2023/06/02 02:22:18;;;;;;;58.75;20.63;;;;;;;;;;5011430;28;20026;-41
2023/06/02 02:24:46;;;;;;;51.00;20.17;;;;;;;;;;5011389;28;20495;-40
2023/06/02 02:27:13;;;;;;;57.05;21.20;;;;;;;;;;5011051;28;20502;-41
2023/06/02 02:29:40;;;;;;;56.25;19.08;;;;;;;;;;5003808;28;20432;-41
2023/06/02 02:32:07;;;;;;;61.47;20.35;;;;;;;;;;4991245;28;20043;-41
2023/06/02 02:34:34;;;;;;;57.80;19.02;;;;;;;;;;4983176;28;20045;-41
2023/06/02 02:37:02;;;;;;;51.17;18.77;;;;;;;;;;4984738;28;20097;-41
2023/06/02 02:39:29;;;;;;;58.70;20.23;;;;;;;;;;4981517;28;20027;-41
2023/06/02 02:41:56;;;;;;;55.22;18.88;;;;;;;;;;4978198;28;20022;-41
2023/06/02 02:44:23;;;;;;;55.35;20.33;;;;;;;;;;4978442;28;20583;-41
2023/06/02 02:46:50;;;;;;;60.75;19.27;;;;;;;;;;4981233;28;20042;-41
2023/06/02 02:49:17;;;;;;;58.08;19.73;;;;;;;;;;4988283;28;20117;-41
2023/06/02 02:51:44;;;;;;;54.03;20.00;;;;;;;;;;4991493;28;20358;-41
2023/06/02 02:54:11;;;;;;;51.40;19.20;;;;;;;;;;4991572;28;20049;-42
2023/06/02 02:56:39;;;;;;;58.67;19.30;;;;;;;;;;4991253;28;20117;-42
2023/06/02 02:59:07;;;;;;;50.33;18.13;;;;;;;;;;4991631;28;20069;-41
2023/06/02 03:01:34;;;;;;;59.28;19.70;;;;;;;;;;4992120;28;20085;-42
2023/06/02 03:04:02;;;;;;;44.22;16.80;;;;;;;;;;4991963;28;20034;-42
2023/06/02 03:06:31;;;;;;;49.80;18.77;;;;;;;;;;4991979;28;20022;-41
2023/06/02 03:08:59;;;;;;;48.97;18.08;;;;;;;;;;4991955;28;20058;-42
2023/06/02 03:11:26;;;;;;;51.00;18.27;;;;;;;;;;4992316;28;20656;-41
2023/06/02 03:13:53;;;;;;;48.55;18.05;;;;;;;;;;4991980;28;20448;-41
2023/06/02 03:16:20;;;;;;;44.22;17.85;;;;;;;;;;5006290;28;20412;-42
2023/06/02 03:18:47;;;;;;;47.35;17.23;;;;;;;;;;5011642;28;20105;-42
2023/06/02 03:21:14;;;;;;;47.75;17.88;;;;;;;;;;5011686;28;20396;-41
2023/06/02 03:23:41;;;;;;;47.28;17.15;;;;;;;;;;5011369;28;20044;-41
2023/06/02 03:26:11;;;;;;;41.47;17.13;;;;;;;;;;5011641;28;20542;-42
2023/06/02 03:28:39;;;;;;;48.45;16.90;;;;;;;;;;5011622;28;20038;-43
2023/06/02 03:31:06;;;;;;;43.83;16.50;;;;;;;;;;5011272;28;20041;-42
2023/06/02 03:33:33;;;;;;;49.25;15.98;;;;;;;;;;5011390;28;20026;-41
2023/06/02 03:36:00;;;;;;;45.13;16.00;;;;;;;;;;5011289;28;20105;-41
2023/06/02 03:38:27;;;;;;;41.58;16.02;;;;;;;;;;5011338;28;20212;-41
2023/06/02 03:40:54;;;;;;;42.15;15.40;;;;;;;;;;5011337;28;20030;-42
2023/06/02 03:43:21;;;;;;;43.25;15.75;;;;;;;;;;5011318;28;20038;-42
2023/06/02 03:45:48;;;;;;;40.40;14.88;;;;;;;;;;5011333;28;20076;-41
2023/06/02 03:48:15;;;;;;;44.05;14.68;;;;;;;;;;5011485;28;20034;-41
2023/06/02 03:50:42;;;;;;;41.65;15.07;;;;;;;;;;5011397;28;20053;-41
2023/06/02 03:53:09;;;;;;;37.60;13.70;;;;;;;;;;5011353;28;20036;-41
2023/06/02 03:55:37;;;;;;;39.95;14.10;;;;;;;;;;5011316;28;20022;-42
2023/06/02 03:58:04;;;;;;;37.15;13.10;;;;;;;;;;5011106;28;20117;-42
2023/06/02 04:00:31;;;;;;;31.50;13.35;;;;;;;;;;5014871;28;20480;-42
2023/06/02 04:02:59;;;;;;;35.75;13.80;;;;;;;;;;5014882;28;20036;-41
2023/06/02 04:05:26;;;;;;;36.13;13.75;;;;;;;;;;5015015;28;20026;-42
2023/06/02 04:07:53;;;;;;;32.47;12.85;;;;;;;;;;5015033;28;20033;-42
2023/06/02 04:10:20;;;;;;;36.90;13.07;;;;;;;;;;5014742;28;20037;-41
2023/06/02 04:12:47;;;;;;;31.27;12.68;;;;;;;;;;5014633;28;20068;-41
2023/06/02 04:15:14;;;;;;;31.73;12.38;;;;;;;;;;5014645;28;20145;-41
2023/06/02 04:17:41;;;;;;;30.00;11.60;;;;;;;;;;5014700;28;20084;-41
2023/06/02 04:20:09;;;;;;;29.52;12.40;;;;;;;;;;5014439;28;20034;-41
2023/06/02 04:22:35;;;;;;;31.40;12.98;;;;;;;;;;5014443;28;20038;-40
2023/06/02 04:25:03;;;;;;;31.45;11.40;;;;;;;;;;5014575;28;20042;-41
2023/06/02 04:27:29;;;;;;;30.77;11.93;;;;;;;;;;5014595;28;20026;-41
2023/06/02 04:29:58;;;;;;;27.48;11.68;;;;;;;;;;5014018;28;20030;-42
2023/06/02 04:32:25;;;;;;;26.92;10.93;;;;;;;;;;5014264;28;20044;-41
2023/06/02 04:34:52;;;;;;;23.55;10.48;;;;;;;;;;5014455;28;20427;-42
2023/06/02 04:37:19;;;;;;;24.55;10.43;;;;;;;;;;4996765;28;20453;-41
2023/06/02 04:39:50;;;;;;;25.83;10.55;;;;;;;;;;5014121;28;20104;-42
2023/06/02 04:42:20;;;;;;;24.33;9.77;;;;;;;;;;5014378;28;20025;-42
2023/06/02 04:44:48;;;;;;;20.55;9.63;;;;;;;;;;5014093;28;20392;-41
2023/06/02 04:47:15;;;;;;;23.83;9.90;;;;;;;;;;5014101;28;20089;-42
2023/06/02 04:49:42;;;;;;;20.20;8.93;;;;;;;;;;5014178;28;20475;-41
2023/06/02 04:52:09;;;;;;;23.00;9.15;;;;;;;;;;5014203;28;20061;-41
2023/06/02 04:54:36;;;;;;;23.30;9.05;;;;;;;;;;5014161;28;20080;-41
2023/06/02 04:57:07;;;;;;;21.70;9.05;;;;;;;;;;5013982;28;20025;-41
2023/06/02 04:59:35;;;;;;;17.55;8.77;;;;;;;;;;5013995;28;20134;-41
2023/06/02 05:02:02;;;;;;;22.73;8.43;;;;;;;;;;5013743;28;20041;-41
2023/06/02 05:04:29;;;;;;;17.05;8.00;;;;;;;;;;5013900;28;20050;-41
2023/06/02 05:06:56;;;;;;;17.45;8.18;;;;;;;;;;5013880;28;20018;-41
2023/06/02 05:09:23;;;;;;;15.73;7.47;;;;;;;;;;5013809;28;20022;-41
2023/06/02 05:11:50;;;;;;;18.75;7.78;;;;;;;;;;5012670;28;20041;-41
2023/06/02 05:14:18;;;;;;;17.95;7.50;;;;;;;;;;5013709;28;20025;-41
2023/06/02 05:16:44;;;;;;;18.35;7.53;;;;;;;;;;5013528;28;20065;-41
2023/06/02 05:19:11;;;;;;;15.85;7.00;;;;;;;;;;5013663;28;20053;-42
2023/06/02 05:21:38;;;;;;;17.80;6.82;;;;;;;;;;5013477;28;20460;-41
2023/06/02 05:24:06;;;;;;;15.38;6.93;;;;;;;;;;5013417;28;20472;-41
2023/06/02 05:26:33;;;;;;;14.15;6.72;;;;;;;;;;5013533;28;20022;-42
2023/06/02 05:29:00;;;;;;;11.70;6.03;;;;;;;;;;5013409;28;20040;-42
2023/06/02 05:31:26;;;;;;;12.77;7.00;;;;;;;;;;5011940;28;20021;-41
2023/06/02 05:33:53;;;;;;;13.98;6.18;;;;;;;;;;5013357;28;20076;-41
2023/06/02 05:36:20;;;;;;;12.82;6.15;;;;;;;;;;5013270;28;20058;-42
2023/06/02 05:38:47;;;;;;;12.30;5.82;;;;;;;;;;5013285;28;20025;-42
2023/06/02 05:41:14;;;;;;;14.65;6.57;;;;;;;;;;5013100;28;20037;-41
2023/06/02 05:43:42;;;;;;;13.27;5.60;;;;;;;;;;5013149;28;20484;-42
2023/06/02 05:46:08;;;;;;;13.95;6.40;;;;;;;;;;5013110;28;20033;-41
2023/06/02 05:48:35;;;;;;;16.60;6.85;;;;;;;;;;5012981;28;20024;-41
2023/06/02 05:51:02;;;;;;;9.98;5.43;;;;;;;;;;5012898;28;20076;-41
2023/06/02 05:53:29;;;;;;;13.18;5.70;;;;;;;;;;5013050;28;20101;-41
2023/06/02 05:55:56;;;;;;;11.18;5.50;;;;;;;;;;5012983;28;20046;-41
2023/06/02 05:58:23;;;;;;;15.63;5.65;;;;;;;;;;5012989;28;20025;-41
2023/06/02 06:00:50;;;;;;;16.17;5.95;;;;;;;;;;5012858;28;20041;-41
2023/06/02 06:03:17;;;;;;;12.30;5.38;;;;;;;;;;5011553;28;20042;-41
2023/06/02 06:05:44;;;;;;;12.35;5.93;;;;;;;;;;5012786;28;20547;-41
2023/06/02 06:08:11;;;;;;;10.93;4.95;;;;;;;;;;5012742;28;20072;-41
2023/06/02 06:10:42;;;;;;;10.80;5.13;;;;;;;;;;5012605;28;20102;-41
2023/06/02 06:13:09;;;;;;;12.00;5.97;;;;;;;;;;5012530;28;20022;-41
2023/06/02 06:15:36;;;;;;;10.73;5.05;;;;;;;;;;5012364;28;20084;-41
2023/06/02 06:18:04;;;;;;;11.73;5.05;;;;;;;;;;5012609;28;20028;-41
2023/06/02 06:20:31;;;;;;;9.73;4.82;;;;;;;;;;5012304;28;20030;-41
2023/06/02 06:22:58;;;;;;;10.85;5.13;;;;;;;;;;5012310;28;20085;-41
2023/06/02 06:25:25;;;;;;;10.18;4.70;;;;;;;;;;5012402;28;20076;-41
2023/06/02 06:27:52;;;;;;;11.15;4.93;;;;;;;;;;5012431;28;20049;-41
2023/06/02 06:30:21;;;;;;;9.50;4.88;;;;;;;;;;5012276;28;20396;-42
2023/06/02 06:32:48;;;;;;;10.65;4.60;;;;;;;;;;5169446;22;20523;-42
2023/06/02 06:35:15;;;;;;;7.97;4.43;;;;;;;;;;5013229;28;20348;-42
2023/06/02 06:37:42;;;;;;;12.32;5.45;;;;;;;;;;5012564;28;20053;-42
2023/06/02 06:40:10;;;;;;;11.00;5.10;;;;;;;;;;5012185;28;20022;-42
2023/06/02 06:42:37;;;;;;;12.43;4.60;;;;;;;;;;5012206;28;20026;-43
2023/06/02 06:45:04;;;;;;;10.15;4.60;;;;;;;;;;5012212;28;20042;-42
2023/06/02 06:47:31;;;;;;;9.38;4.93;;;;;;;;;;5012218;28;20428;-42
2023/06/02 06:49:58;;;;;;;10.13;4.28;;;;;;;;;;5012201;28;20022;-46
2023/06/02 06:52:27;;;;;;;9.27;4.35;;;;;;;;;;5012048;28;20025;-42
2023/06/02 06:54:54;;;;;;;7.63;3.97;;;;;;;;;;5011980;28;20038;-45
2023/06/02 06:57:21;;;;;;;7.90;3.95;;;;;;;;;;5012086;28;20391;-42
2023/06/02 06:59:48;;;;;;;10.52;3.90;;;;;;;;;;4994255;28;20434;-43
2023/06/02 07:02:15;;;;;;;9.93;4.18;;;;;;;;;;5011706;28;20101;-42
2023/06/02 07:04:43;;;;;;;12.05;4.53;;;;;;;;;;5011867;28;20030;-42
2023/06/02 07:07:12;;;;;;;8.10;4.05;;;;;;;;;;5011805;28;20072;-42
2023/06/02 07:09:39;;;;;;;7.53;4.03;;;;;;;;;;5011952;28;20104;-42
2023/06/02 07:12:06;;;;;;;9.13;3.90;;;;;;;;;;5011761;28;20018;-44
2023/06/02 07:14:33;;;;;;;7.97;4.10;;;;;;;;;;5011680;28;20030;-43
2023/06/02 07:17:00;;;;;;;7.53;3.90;;;;;;;;;;5011919;28;20057;-42
2023/06/02 07:19:27;;;;;;;7.22;3.88;;;;;;;;;;5011840;28;20491;-43
2023/06/02 07:21:54;;;;;;;8.23;4.10;;;;;;;;;;5011628;28;20025;-44
2023/06/02 07:24:21;;;;;;;7.72;3.50;;;;;;;;;;5011726;28;20064;-43
2023/06/02 07:26:48;;;;;;;7.40;3.80;;;;;;;;;;5011801;28;20026;-42
2023/06/02 07:29:15;;;;;;;6.45;3.45;;;;;;;;;;5011798;28;20026;-42
2023/06/02 07:31:43;;;;;;;8.88;3.63;;;;;;;;;;5011543;28;20046;-44
2023/06/02 07:34:10;;;;;;;7.80;3.63;;;;;;;;;;5012854;28;20030;-42
2023/06/02 07:36:38;;;;;;;6.18;3.55;;;;;;;;;;5015616;28;20030;-44
2023/06/02 07:39:05;;;;;;;7.13;3.55;;;;;;;;;;5015471;28;20460;-44
2023/06/02 07:41:33;;;;;;;7.85;3.63;;;;;;;;;;5015476;28;20033;-43
2023/06/02 07:44:00;;;;;;;6.45;3.47;;;;;;;;;;5015284;28;20591;-44
2023/06/02 07:46:27;;;;;;;6.78;3.58;;;;;;;;;;5015508;28;20088;-42
2023/06/02 07:48:54;;;;;;;8.13;3.80;;;;;;;;;;5015386;28;20786;-42
2023/06/02 07:51:21;;;;;;;6.15;3.30;;;;;;;;;;5015272;28;20030;-43
2023/06/02 07:53:48;;;;;;;7.38;3.67;;;;;;;;;;5015287;28;20049;-43
2023/06/02 07:56:14;;;;;;;6.20;3.40;;;;;;;;;;5015301;28;20399;-42
2023/06/02 07:58:41;;;;;;;6.60;3.30;;;;;;;;;;5015206;28;20038;-43
2023/06/02 08:01:09;;;;;;;7.65;3.47;;;;;;;;;;5015020;28;20491;-42
2023/06/02 08:03:35;;;;;;;6.75;3.47;;;;;;;;;;5015025;28;20484;-44
2023/06/02 08:06:03;;;;;;;5.57;3.03;;;;;;;;;;5015073;28;20022;-42
2023/06/02 08:08:29;;;;;;;7.15;3.55;;;;;;;;;;5015022;28;20042;-43
2023/06/02 08:10:57;;;;;;;8.88;3.20;;;;;;;;;;5014778;28;20034;-44
2023/06/02 08:13:24;;;;;;;6.93;3.30;;;;;;;;;;4997238;28;20037;-43
2023/06/02 08:15:52;;;;;;;6.63;3.17;;;;;;;;;;4997273;28;20395;-43
2023/06/02 08:18:19;;;;;;;7.70;3.42;;;;;;;;;;5014845;28;20026;-44
2023/06/02 08:20:46;;;;;;;5.53;3.20;;;;;;;;;;5014807;28;20479;-43
2023/06/02 08:23:13;;;;;;;6.95;3.40;;;;;;;;;;5014596;28;20063;-43
2023/06/02 08:25:40;;;;;;;6.40;2.80;;;;;;;;;;5014793;28;20034;-42
2023/06/02 08:28:09;;;;;;;5.45;2.70;;;;;;;;;;5014766;28;20479;-42
2023/06/02 08:30:36;;;;;;;4.95;3.10;;;;;;;;;;5014716;28;20427;-45
2023/06/02 08:33:05;;;;;;;9.23;2.90;;;;;;;;;;5014354;28;20108;-42
2023/06/02 08:35:38;;;;;;;9.35;2.95;;;;;;;;;;5014460;28;20080;-42
2023/06/02 08:38:07;;;;;;;6.22;3.42;;;;;;;;;;5014378;28;20458;-43
2023/06/02 08:40:38;;;;;;;6.60;3.08;;;;;;;;;;5014483;28;20036;-44
2023/06/02 08:43:09;;;;;;;7.45;2.85;;;;;;;;;;5014255;28;20030;-42
2023/06/02 08:45:36;;;;;;;5.05;2.78;;;;;;;;;;5012847;28;20030;-45
2023/06/02 08:48:05;;;;;;;7.43;3.42;;;;;;;;;;5014263;28;20026;-42
2023/06/02 08:50:36;;;;;;;5.50;3.13;;;;;;;;;;5014237;28;20030;-43
2023/06/02 08:53:04;;;;;;;6.82;3.42;;;;;;;;;;5014176;28;20052;-42
2023/06/02 08:55:32;;;;;;;4.53;2.80;;;;;;;;;;5014094;28;20080;-43
2023/06/02 08:57:59;;;;;;;5.30;3.08;;;;;;;;;;5013963;28;20033;-42
2023/06/02 09:00:27;;;;;;;6.60;3.30;;;;;;;;;;5014025;28;20076;-42
2023/06/02 09:02:54;;;;;;;6.00;3.03;;;;;;;;;;5013811;28;20079;-41
2023/06/02 09:05:22;;;;;;;5.22;2.65;;;;;;;;;;5013900;28;20083;-43
2023/06/02 09:08:04;;;;;;;6.95;2.80;;;;;;;;;;5013823;28;20026;-42
2023/06/02 09:10:31;;;;;;;6.07;3.13;;;;;;;;;;5013892;28;20030;-42
2023/06/02 09:12:59;;;;;;;6.85;2.80;;;;;;;;;;5013333;28;20442;-42
2023/06/02 09:15:26;;;;;;;4.68;2.60;;;;;;;;;;5013767;28;20038;-42
2023/06/02 09:17:53;;;;;;;7.03;3.13;;;;;;;;;;5013662;28;20096;-43
2023/06/02 09:20:31;;;;;;;3.67;2.38;;;;;;;;;;5002984;28;20088;-42
2023/06/02 09:23:01;;;;;;;12.77;2.97;;;;;;;;;;5004110;28;20021;-42
2023/06/02 09:25:29;;;;;;;6.40;2.38;;;;;;;;;;5003838;28;20102;-42
2023/06/02 09:27:57;;;;;;;5.65;2.80;;;;;;;;;;5004086;28;20032;-42
2023/06/02 09:30:24;;;;;;;5.70;2.85;;;;;;;;;;5003439;28;20431;-42
2023/06/02 09:32:53;;;;;;;7.03;3.17;;;;;;;;;;4980867;28;20165;-44
2023/06/02 09:35:40;;;;;;;5.65;2.65;;;;;;;;;;4983732;28;20030;-43
2023/06/02 09:38:10;;;;;;;7.60;3.20;;;;;;;;;;4991179;28;20507;-44
2023/06/02 09:40:37;;;;;;;7.55;2.90;;;;;;;;;;4974041;28;20040;-44
2023/06/02 09:43:05;;;;;;;5.10;2.78;;;;;;;;;;4979360;28;20031;-42
2023/06/02 09:45:33;;;;;;;7.75;3.00;;;;;;;;;;4974165;28;20493;-43
2023/06/02 09:48:00;;;;;;;7.90;2.97;;;;;;;;;;4974139;28;20066;-44
2023/06/02 09:50:35;;;;;;;7.07;2.75;;;;;;;;;;4974066;28;20551;-46
2023/06/02 09:53:05;;;;;;;6.22;2.90;;;;;;;;;;4973744;28;20037;-44
2023/06/02 09:55:33;;;;;;;6.10;2.60;;;;;;;;;;4974079;28;20640;-44
2023/06/02 09:58:00;;;;;;;6.70;2.67;;;;;;;;;;4973483;28;20031;-45
2023/06/02 10:00:28;;;;;;;6.28;2.70;;;;;;;;;;4974023;28;20050;-45
2023/06/02 10:02:55;;;;;;;10.20;3.10;;;;;;;;;;4973639;28;20568;-42
2023/06/02 10:05:22;;;;;;;12.07;3.00;;;;;;;;;;4967620;28;20053;-42
2023/06/02 10:07:56;;;;;;;7.90;2.80;;;;;;;;;;4973688;28;20031;-41
2023/06/02 10:10:23;;;;;;;12.65;2.80;;;;;;;;;;4973138;28;20034;-41
2023/06/02 10:12:59;;;;;;;9.93;3.03;;;;;;;;;;4972923;28;20023;-41
2023/06/02 10:15:40;;;;;;;10.65;3.03;;;;;;;;;;4971708;28;20037;-44
2023/06/02 10:18:10;;;;;;;6.35;3.17;;;;;;;;;;4973264;28;20070;-40
2023/06/02 10:20:44;;;;;;;6.22;2.42;;;;;;;;;;4973272;28;20030;-42
2023/06/02 10:23:21;;;;;;;8.70;3.10;;;;;;;;;;4972651;28;20026;-42
2023/06/02 10:25:51;;;;;;;8.02;3.00;;;;;;;;;;4971287;28;20030;-43
2023/06/02 10:28:19;;;;;;;7.40;2.70;;;;;;;;;;4973053;28;20026;-44
2023/06/02 10:30:46;;;;;;;7.00;2.72;;;;;;;;;;4973310;28;20035;-41
2023/06/02 10:33:13;;;;;;;8.15;2.88;;;;;;;;;;4988168;28;20042;-47
2023/06/02 10:35:59;;;;;;;7.10;3.22;;;;;;;;;;4991392;28;20165;-45
2023/06/02 10:38:31;;;;;;;5.35;2.70;;;;;;;;;;4991907;28;20061;-43
2023/06/02 10:40:59;;;;;;;6.90;2.72;;;;;;;;;;4992247;28;20026;-42
2023/06/02 10:43:26;;;;;;;4.97;2.63;;;;;;;;;;5001193;28;20112;-43
2023/06/02 10:45:55;;;;;;;10.70;3.05;;;;;;;;;;4999941;28;20061;-42
2023/06/02 10:48:37;;;;;;;5.72;2.28;;;;;;;;;;4998385;28;20414;-45
2023/06/02 10:51:04;;;;;;;;;;;;;;;;;;4999859;28;20038;-43
2023/06/02 10:53:31;;;;;;;11.38;2.70;;;;;;;;;;4992234;28;19970;-43
2023/06/02 10:55:58;;;;;;;7.90;2.10;;;;;;;;;;5009690;28;20589;-42
2023/06/02 10:58:44;;;;;;;7.15;2.40;;;;;;;;;;5010301;28;20034;-41
2023/06/02 11:01:13;;;;;;;9.65;2.45;;;;;;;;;;5011788;28;20054;-41
2023/06/02 11:03:41;;;;;;;9.18;2.30;;;;;;;;;;5011172;28;20046;-41
2023/06/02 11:06:21;;;;;;;4.10;2.10;;;;;;;;;;5011628;28;20032;-40
2023/06/02 11:08:48;;;;;;;8.90;2.30;;;;;;;;;;5009447;28;20057;-41
2023/06/02 11:11:35;;;;;;;5.72;2.75;;;;;;;;;;5010929;28;20100;-44
2023/06/02 11:14:02;;;;;;;77.25;5.30;;;;;;;;;;5004062;28;20046;-45
2023/06/02 11:16:29;;;;;;;17.05;3.05;;;;;;;;;;5011610;28;20026;-48
2023/06/02 11:18:56;;;;;;;14.32;2.85;;;;;;;;;;5011713;28;20368;-42
2023/06/02 11:21:23;;;;;;;11.95;2.40;;;;;;;;;;5010996;28;20109;-48
2023/06/02 11:23:50;;;;;;;37.42;3.38;;;;;;;;;;5003753;28;20042;-45
2023/06/02 11:26:24;;;;;;;26.80;2.90;;;;;;;;;;5005524;28;20053;-47
2023/06/02 11:28:51;;;;;;;38.92;3.75;;;;;;;;;;5002760;28;20026;-46
2023/06/02 11:31:19;;;;;;;220.30;15.65;;;;;;;;;;4982575;28;20033;-46
2023/06/02 11:33:50;;;;;;;172.27;13.75;;;;;;;;;;5000473;28;20093;-48
2023/06/02 11:36:26;;;;;;;155.38;10.15;;;;;;;;;;5001921;28;20037;-50
2023/06/02 11:39:02;;;;;;;103.95;7.05;;;;;;;;;;5001845;28;20117;-46
2023/06/02 11:41:29;;;;;;;47.60;5.38;;;;;;;;;;5001775;28;20037;-51
2023/06/02 11:44:10;;;;;;;49.90;4.88;;;;;;;;;;5000090;28;20085;-51
2023/06/02 11:46:37;;;;;;;51.70;5.70;;;;;;;;;;5002015;28;20026;-48
2023/06/02 11:49:05;;;;;;;46.15;7.00;;;;;;;;;;5001211;28;20081;-48
2023/06/02 11:51:32;;;;;;;49.47;7.00;;;;;;;;;;4999169;28;20065;-46
2023/06/02 11:54:03;;;;;;;42.95;5.97;;;;;;;;;;4991611;28;20093;-47
2023/06/02 11:56:30;;;;;;;50.35;5.32;;;;;;;;;;4979012;28;20419;-47
2023/06/02 11:58:57;;;;;;;38.92;5.13;;;;;;;;;;5001161;28;20507;-45
2023/06/02 12:01:25;;;;;;;42.17;5.25;;;;;;;;;;5005187;28;20034;-47
2023/06/02 12:03:55;;;;;;;32.67;4.63;;;;;;;;;;5010978;28;20392;-44
2023/06/02 12:06:22;;;;;;;49.78;5.68;;;;;;;;;;5010684;28;20511;-47
2023/06/02 12:08:49;;;;;;;35.42;5.35;;;;;;;;;;5001787;28;20049;-49
2023/06/02 12:11:17;;;;;;;44.80;5.63;;;;;;;;;;5000874;28;20022;-46
2023/06/02 12:13:56;;;;;;;37.25;4.88;;;;;;;;;;4999568;28;20034;-47
2023/06/02 12:16:24;;;;;;;35.13;5.47;;;;;;;;;;4999594;28;20030;-47
2023/06/02 12:18:53;;;;;;;37.72;4.80;;;;;;;;;;5011019;28;20022;-48
2023/06/02 12:21:27;;;;;;;36.83;4.78;;;;;;;;;;5013957;28;20036;-47
2023/06/02 12:23:59;;;;;;;28.00;5.05;;;;;;;;;;5014401;28;20036;-51
2023/06/02 12:26:26;;;;;;;32.15;4.70;;;;;;;;;;5013970;28;20038;-48
2023/06/02 12:28:55;;;;;;;27.58;4.80;;;;;;;;;;5003168;28;20026;-51
2023/06/02 12:31:23;;;;;;;32.38;4.80;;;;;;;;;;5007115;28;20391;-47
2023/06/02 12:33:50;;;;;;;31.85;4.50;;;;;;;;;;5007633;28;20077;-48
2023/06/02 12:36:17;;;;;;;34.35;5.43;;;;;;;;;;5014267;28;20030;-45
2023/06/02 12:38:44;;;;;;;35.47;5.45;;;;;;;;;;5014235;28;20022;-49
2023/06/02 12:41:11;;;;;;;29.88;5.05;;;;;;;;;;5014123;28;20105;-46
2023/06/02 12:43:41;;;;;;;27.40;4.68;;;;;;;;;;5014006;28;20514;-52
2023/06/02 12:46:09;;;;;;;23.45;4.05;;;;;;;;;;5014136;28;20041;-47
2023/06/02 12:48:36;;;;;;;30.75;5.05;;;;;;;;;;5013915;28;20111;-47
2023/06/02 12:51:04;;;;;;;18.83;4.00;;;;;;;;;;5013919;28;20022;-47
2023/06/02 12:53:31;;;;;;;29.08;4.60;;;;;;;;;;5013754;28;20052;-47
2023/06/02 12:55:59;;;;;;;22.90;4.43;;;;;;;;;;5013962;28;20480;-49
2023/06/02 12:58:26;;;;;;;24.67;4.22;;;;;;;;;;5013716;28;20038;-53
2023/06/02 13:00:53;;;;;;;23.08;4.00;;;;;;;;;;5013641;28;20053;-46
2023/06/02 13:03:20;;;;;;;20.08;4.00;;;;;;;;;;5013742;28;20022;-51
2023/06/02 13:05:58;;;;;;;18.02;3.97;;;;;;;;;;5013693;28;20030;-46
2023/06/02 13:08:25;;;;;;;18.70;3.20;;;;;;;;;;5013706;28;20156;-46
2023/06/02 13:10:52;;;;;;;14.85;3.40;;;;;;;;;;5013483;28;20030;-47
2023/06/02 13:13:19;;;;;;;19.52;3.45;;;;;;;;;;5013793;28;20373;-48
2023/06/02 13:15:47;;;;;;;17.42;3.80;;;;;;;;;;5013563;28;20029;-53
2023/06/02 13:18:15;;;;;;;15.07;2.85;;;;;;;;;;5013720;28;20065;-48
2023/06/02 13:20:42;;;;;;;15.93;3.00;;;;;;;;;;5013398;28;20029;-48
2023/06/02 13:23:09;;;;;;;17.55;3.65;;;;;;;;;;5013360;28;20026;-50
2023/06/02 13:25:36;;;;;;;14.05;3.10;;;;;;;;;;5013315;28;20480;-46
2023/06/02 13:28:03;;;;;;;11.88;2.72;;;;;;;;;;4995653;28;20482;-48
2023/06/02 13:30:30;;;;;;;14.70;2.92;;;;;;;;;;5013082;28;20033;-55
2023/06/02 13:32:57;;;;;;;14.25;2.97;;;;;;;;;;5012317;28;20042;-50
2023/06/02 13:35:24;;;;;;;18.02;2.90;;;;;;;;;;5013153;28;20058;-48
2023/06/02 13:37:52;;;;;;;13.18;3.03;;;;;;;;;;5012252;28;20399;-50
2023/06/02 13:40:19;;;;;;;14.93;3.20;;;;;;;;;;5012153;28;20037;-52
2023/06/02 13:42:46;;;;;;;12.48;3.05;;;;;;;;;;5012521;28;20108;-47
2023/06/02 13:45:13;;;;;;;14.70;2.83;;;;;;;;;;5012445;28;20045;-47
2023/06/02 13:47:40;;;;;;;8.18;2.50;;;;;;;;;;4994748;28;20026;-46
2023/06/02 13:50:07;;;;;;;11.48;2.45;;;;;;;;;;5012424;28;20022;-49
2023/06/02 13:52:34;;;;;;;9.85;2.50;;;;;;;;;;5012470;28;20037;-46
2023/06/02 13:55:01;;;;;;;12.68;2.70;;;;;;;;;;5012163;28;20472;-49
2023/06/02 13:57:28;;;;;;;11.30;2.72;;;;;;;;;;5002962;28;20026;-48
2023/06/02 13:59:55;;;;;;;11.30;2.55;;;;;;;;;;5009485;28;20022;-50
2023/06/02 14:02:22;;;;;;;7.93;2.40;;;;;;;;;;5012068;28;20072;-47
2023/06/02 14:04:49;;;;;;;9.50;2.53;;;;;;;;;;5011921;28;20049;-52
2023/06/02 14:07:16;;;;;;;7.93;2.47;;;;;;;;;;5012175;28;20034;-51
2023/06/02 14:09:45;;;;;;;6.35;2.22;;;;;;;;;;5012044;28;20029;-45
2023/06/02 14:12:12;;;;;;;6.78;2.17;;;;;;;;;;5011858;28;20092;-49
2023/06/02 14:14:39;;;;;;;6.65;2.70;;;;;;;;;;5011856;28;20565;-47
2023/06/02 14:17:06;;;;;;;16.50;2.35;;;;;;;;;;5011852;28;20514;-48
2023/06/02 14:19:33;;;;;;;12.23;2.40;;;;;;;;;;5011682;28;20475;-48
2023/06/02 14:22:00;;;;;;;12.23;2.35;;;;;;;;;;5011647;28;20030;-49
2023/06/02 14:24:27;;;;;;;10.35;2.50;;;;;;;;;;5011658;28;20373;-52
2023/06/02 14:26:56;;;;;;;8.82;2.55;;;;;;;;;;5011694;28;20484;-47
2023/06/02 14:29:23;;;;;;;12.73;2.58;;;;;;;;;;5012156;28;20034;-49
2023/06/02 14:31:50;;;;;;;15.48;2.58;;;;;;;;;;5011932;28;20054;-50
2023/06/02 14:34:17;;;;;;;18.33;2.88;;;;;;;;;;5012122;28;20033;-48
2023/06/02 14:36:44;;;;;;;16.77;2.97;;;;;;;;;;5012053;28;20049;-45